KASJ

Details ICAO KASJ
Name TRI CO
Region United States
Timezone America/New_York (UTC-4.0)
Plans Departing 0
Arriving 1
Stats Elevation 68 ft / 21 m (AMSL)
Location 36.297525° -77.170744°
Runways 1
Magnetic Variation 10.248° W
Sunrise 2018-05-22 09:58:45 UTC / 2018-05-22 05:58:45 Local
Sunset 2018-05-23 00:14:51 UTC / 2018-05-22 20:14:51 Local
Advertisement - Login to hide

Runways

ID Width Length Bearing (true) Bearing (mag) Surface Threshold Offset Overrun Length
01 75 ft / 23 m 4,512 ft / 1,375 m 1.21° 11.46° Asphalt 0 ft / 0 m 0 ft / 0 m
19 75 ft / 23 m 4,512 ft / 1,375 m 181.21° 191.46° Asphalt 0 ft / 0 m 0 ft / 0 m

Map

Weather


0- 5 10 15 20 25 30 35+ Temperature / ° C

Clouds and Precipitation
Forecast for 2018-05-22 12:00 UTC. Updated 3 hours ago

Ground ~20,000 ft ~40,000 ft Winds

METAR

KASJ 221335Z AUTO 00000KT 4SM BR OVC004 21/21 A3015 RMK AO2 T02060206

TAF

Not found

Frequencies

Recorded 119.07 MHz AWOS 3
Unicom 122.80 MHz CTAF/UNICOM
Warning: Do not use this data for real-world aviation or navigation. No guarantee of current accuracy is given.